Time;durP1;ratioP1;P1;durP2;ratioP2;P2;SDS_P1;SDS_P2;PMS_P1;PMS_P2;Temp;Humidity;BMP_temperature;BMP_pressure;BME280_temperature;BME280_humidity;BME280_pressure;Samples;Min_cycle;Max_cycle;Signal;HPM_P1;HPM_P2
2023/04/25 00:01:41;;;;;;;;;;;;;;;12.35;93.53;94497.22;5057100;28;973;-49
2023/04/25 00:04:07;;;;;;;;;;;;;;;12.41;93.19;94501.84;5056942;28;1049;-49
2023/04/25 00:06:36;;;;;;;;;;;;;;;12.42;92.14;94496.28;5057011;28;1096;-50
2023/04/25 00:09:03;;;;;;;;;;;;;;;12.37;92.38;94500.53;5056853;28;1040;-49
2023/04/25 00:11:30;;;;;;;;;;;;;;;12.40;92.97;94495.63;5056955;28;1063;-49
2023/04/25 00:13:57;;;;;;;;;;;;;;;12.41;93.54;94486.59;5057038;28;1993;-49
2023/04/25 00:16:23;;;;;;;;;;;;;;;12.41;93.67;94485.78;5056701;28;1116;-49
2023/04/25 00:18:53;;;;;;;;;;;;;;;12.38;93.43;94484.28;5056823;28;1085;-49
2023/04/25 00:21:20;;;;;;;;;;;;;;;12.33;93.48;94489.41;5056990;28;1017;-48
2023/04/25 00:23:46;;;;;;;;;;;;;;;12.34;94.67;94482.19;5056587;28;1112;-49
2023/04/25 00:26:12;;;;;;;;;;;;;;;12.32;94.95;94485.03;5056870;28;1240;-49
2023/04/25 00:28:38;;;;;;;;;;;;;;;12.28;93.98;94484.59;5056712;28;1040;-50
2023/04/25 00:31:04;;;;;;;;;;;;;;;12.03;95.63;94478.72;5056597;28;921;-49
2023/04/25 00:33:30;;;;;;;;;;;;;;;12.05;96.59;94470.50;5056678;28;1996;-49
2023/04/25 00:35:56;;;;;;;;;;;;;;;12.09;96.50;94472.59;5056486;28;1153;-49
2023/04/25 00:38:22;;;;;;;;;;;;;;;12.06;95.36;94469.47;5056227;28;1088;-49
2023/04/25 00:40:48;;;;;;;;;;;;;;;12.09;95.60;94480.63;5056635;28;1599;-49
2023/04/25 00:43:14;;;;;;;;;;;;;;;12.20;96.03;94481.16;5056230;28;1315;-49
2023/04/25 00:45:42;;;;;;;;;;;;;;;12.29;95.90;94469.31;5056410;28;1004;-49
2023/04/25 00:48:09;;;;;;;;;;;;;;;12.21;96.31;94464.91;5056536;28;1013;-49
2023/04/25 00:50:36;;;;;;;;;;;;;;;12.20;96.08;94468.63;5056469;28;945;-49
2023/04/25 00:53:03;;;;;;;;;;;;;;;12.26;95.26;94464.34;5055967;28;1906;-50
2023/04/25 00:55:31;;;;;;;;;;;;;;;12.25;94.68;94458.13;5056232;28;1032;-49
2023/04/25 00:57:57;;;;;;;;;;;;;;;12.18;94.84;94449.22;5056395;28;1017;-49
2023/04/25 01:00:23;;;;;;;;;;;;;;;12.15;95.47;94452.25;5055803;28;1873;-49
2023/04/25 01:02:50;;;;;;;;;;;;;;;12.08;95.52;94448.66;5055696;28;1036;-49
2023/04/25 01:05:18;;;;;;;;;;;;;;;11.78;95.64;94447.84;5056190;28;981;-49
2023/04/25 01:07:45;;;;;;;;;;;;;;;11.77;96.21;94446.19;5056115;28;1044;-49
2023/04/25 01:10:11;;;;;;;;;;;;;;;11.81;96.18;94442.13;5055876;28;961;-49
2023/04/25 01:12:37;;;;;;;;;;;;;;;11.83;95.01;94438.22;5055839;28;1910;-48
2023/04/25 01:15:03;;;;;;;;;;;;;;;11.50;94.09;94432.44;5055989;28;1036;-49
2023/04/25 01:17:29;;;;;;;;;;;;;;;11.32;95.02;94438.13;5055928;28;1032;-49
2023/04/25 01:19:55;;;;;;;;;;;;;;;11.19;95.22;94437.94;5055965;28;1008;-48
2023/04/25 01:22:21;;;;;;;;;;;;;;;11.14;96.03;94433.13;5055621;28;1037;-49
2023/04/25 01:24:48;;;;;;;;;;;;;;;11.31;96.60;94439.16;5055742;28;1021;-49
2023/04/25 01:27:15;;;;;;;;;;;;;;;11.46;96.41;94434.66;5055432;28;1081;-49
2023/04/25 01:29:41;;;;;;;;;;;;;;;11.63;96.30;94426.41;5055777;28;965;-49
2023/04/25 01:32:07;;;;;;;;;;;;;;;11.68;96.32;94429.38;5055461;28;1040;-49
2023/04/25 01:34:33;;;;;;;;;;;;;;;11.72;96.23;94418.13;5055267;28;2020;-49
2023/04/25 01:37:00;;;;;;;;;;;;;;;11.81;95.93;94428.72;5055448;28;1169;-49
2023/04/25 01:39:27;;;;;;;;;;;;;;;11.88;95.27;94432.31;5054330;28;1017;-49
2023/04/25 01:41:53;;;;;;;;;;;;;;;11.84;94.82;94433.72;5055461;28;1619;-49
2023/04/25 01:44:19;;;;;;;;;;;;;;;11.73;93.61;94433.16;5055040;28;1554;-49
2023/04/25 01:46:45;;;;;;;;;;;;;;;11.64;93.81;94433.44;5055198;28;1046;-49
2023/04/25 01:49:11;;;;;;;;;;;;;;;11.52;94.33;94428.53;5055055;28;1093;-49
2023/04/25 01:51:37;;;;;;;;;;;;;;;11.48;94.17;94429.94;5055318;28;1017;-49
2023/04/25 01:54:03;;;;;;;;;;;;;;;11.47;93.79;94436.28;5055021;28;1987;-50
2023/04/25 01:56:30;;;;;;;;;;;;;;;11.40;93.64;94423.84;5055293;28;1048;-49
2023/04/25 01:58:56;;;;;;;;;;;;;;;11.35;93.59;94419.03;5054923;28;1108;-49
2023/04/25 02:01:22;;;;;;;;;;;;;;;11.33;95.09;94415.72;5055100;28;1009;-49
2023/04/25 02:03:48;;;;;;;;;;;;;;;11.28;94.19;94404.72;5055114;28;1040;-48
2023/04/25 02:06:14;;;;;;;;;;;;;;;11.30;94.25;94403.53;5055001;28;1043;-48
2023/04/25 02:08:40;;;;;;;;;;;;;;;11.29;94.42;94411.75;5054888;28;1042;-48
2023/04/25 02:11:06;;;;;;;;;;;;;;;11.26;94.67;94404.91;5054740;28;964;-49
2023/04/25 02:13:32;;;;;;;;;;;;;;;11.28;93.88;94394.03;5053360;28;1910;-49
2023/04/25 02:15:58;;;;;;;;;;;;;;;11.07;94.01;94397.41;5054916;28;1055;-50
2023/04/25 02:18:26;;;;;;;;;;;;;;;10.92;94.83;94387.53;5054673;28;954;-49
2023/04/25 02:20:52;;;;;;;;;;;;;;;10.86;95.97;94390.94;5054539;28;1008;-49
2023/04/25 02:23:19;;;;;;;;;;;;;;;11.01;95.96;94388.28;5054457;28;1016;-50
2023/04/25 02:25:45;;;;;;;;;;;;;;;11.19;95.59;94389.78;5054527;28;1005;-50
2023/04/25 02:28:11;;;;;;;;;;;;;;;11.30;94.81;94389.31;5054203;28;1065;-49
2023/04/25 02:30:37;;;;;;;;;;;;;;;11.32;94.28;94384.59;5054340;28;1037;-49
2023/04/25 02:33:03;;;;;;;;;;;;;;;11.16;94.61;94390.16;5054366;28;1910;-49
2023/04/25 02:35:29;;;;;;;;;;;;;;;11.06;95.21;94385.03;5054457;28;1125;-49
2023/04/25 02:37:55;;;;;;;;;;;;;;;11.16;95.04;94382.94;5054273;28;940;-49
2023/04/25 02:40:21;;;;;;;;;;;;;;;11.25;94.75;94394.38;5054337;28;1017;-49
2023/04/25 02:42:47;;;;;;;;;;;;;;;11.30;94.81;94406.19;5053903;28;1589;-50
2023/04/25 02:45:13;;;;;;;;;;;;;;;11.42;94.30;94403.91;5054287;28;985;-49
2023/04/25 02:47:39;;;;;;;;;;;;;;;11.45;93.95;94392.81;5054342;28;1032;-49
2023/04/25 02:50:05;;;;;;;;;;;;;;;11.43;93.54;94399.38;5053970;28;1029;-49
2023/04/25 02:52:31;;;;;;;;;;;;;;;11.44;93.85;94395.69;5053898;28;1199;-49
2023/04/25 02:54:57;;;;;;;;;;;;;;;11.37;94.01;94395.59;5053848;28;1983;-49
2023/04/25 02:57:23;;;;;;;;;;;;;;;11.30;94.45;94395.50;5053883;28;1274;-49
2023/04/25 02:59:49;;;;;;;;;;;;;;;11.33;94.35;94392.47;5054065;28;953;-49
2023/04/25 03:02:15;;;;;;;;;;;;;;;11.40;95.22;94397.06;5053907;28;1021;-49
2023/04/25 03:04:41;;;;;;;;;;;;;;;11.47;95.20;94392.66;5053980;28;1052;-49
2023/04/25 03:07:07;;;;;;;;;;;;;;;11.40;94.36;94381.00;5053581;28;1050;-49
2023/04/25 03:09:33;;;;;;;;;;;;;;;11.35;94.66;94386.09;5053837;28;989;-49
2023/04/25 03:12:00;;;;;;;;;;;;;;;11.39;94.07;94384.72;5052714;28;1025;-49
2023/04/25 03:14:26;;;;;;;;;;;;;;;11.43;94.64;94386.81;5053372;28;1910;-49
2023/04/25 03:16:52;;;;;;;;;;;;;;;11.39;95.09;94390.91;5052557;28;966;-49
2023/04/25 03:19:18;;;;;;;;;;;;;;;11.36;95.02;94401.97;5053437;28;1045;-49
2023/04/25 03:21:44;;;;;;;;;;;;;;;11.34;94.68;94395.97;5053437;28;808;-49
2023/04/25 03:24:13;;;;;;;;;;;;;;;11.17;96.07;94389.94;5053391;28;1036;-49
2023/04/25 03:26:39;;;;;;;;;;;;;;;11.08;96.52;94380.38;5053401;28;987;-49
2023/04/25 03:29:05;;;;;;;;;;;;;;;11.13;96.03;94381.50;5053391;28;1003;-49
2023/04/25 03:31:31;;;;;;;;;;;;;;;11.27;96.35;94384.34;5053505;28;1270;-49
2023/04/25 03:33:57;;;;;;;;;;;;;;;11.38;95.70;94381.19;5053294;28;1945;-49
2023/04/25 03:39:44;;;;;;;;;;;;;;;11.12;96.98;94387.00;5053612;28;758;-49
2023/04/25 03:42:10;;;;;;;;;;;;;;;11.25;96.92;94387.22;5053441;28;1609;-49
2023/04/25 03:44:36;;;;;;;;;;;;;;;11.36;97.15;94395.78;5052975;28;1339;-49
2023/04/25 03:47:04;;;;;;;;;;;;;;;11.41;96.20;94391.53;5053241;28;1155;-49
2023/04/25 03:49:30;;;;;;;;;;;;;;;11.50;95.20;94392.28;5053165;28;972;-48
2023/04/25 03:51:56;;;;;;;;;;;;;;;11.52;95.88;94385.72;5053025;28;1041;-48
2023/04/25 03:54:22;;;;;;;;;;;;;;;11.62;95.81;94384.59;5052051;28;1914;-49
2023/04/25 03:56:48;;;;;;;;;;;;;;;11.66;95.78;94391.25;5053359;28;1279;-51
2023/04/25 03:59:14;;;;;;;;;;;;;;;11.62;95.78;94395.31;5053000;28;1023;-50
2023/04/25 04:01:40;;;;;;;;;;;;;;;11.46;96.06;94385.66;5053047;28;1029;-50
2023/04/25 04:04:06;;;;;;;;;;;;;;;11.37;97.33;94382.22;5053128;28;1055;-50
2023/04/25 04:06:33;;;;;;;;;;;;;;;11.42;97.38;94382.50;5052846;28;1083;-50
2023/04/25 04:08:59;;;;;;;;;;;;;;;11.60;97.47;94394.69;5053302;28;1219;-49
2023/04/25 04:11:25;;;;;;;;;;;;;;;11.66;97.33;94391.25;5053143;28;1001;-49
2023/04/25 04:13:51;;;;;;;;;;;;;;;11.55;98.34;94392.53;5053199;28;1917;-50
2023/04/25 04:16:18;;;;;;;;;;;;;;;11.69;97.19;94393.56;5052847;28;1992;-50
2023/04/25 04:18:45;;;;;;;;;;;;;;;11.79;97.16;94391.41;5053173;28;1031;-50
2023/04/25 04:21:11;;;;;;;;;;;;;;;11.73;97.07;94392.16;5052699;28;1026;-50
2023/04/25 04:23:37;;;;;;;;;;;;;;;11.69;97.37;94390.88;5053164;28;986;-50
2023/04/25 04:26:03;;;;;;;;;;;;;;;11.77;96.79;94396.13;5053009;28;1024;-50
2023/04/25 04:28:29;;;;;;;;;;;;;;;11.85;96.56;94393.34;5052850;28;1028;-50
2023/04/25 04:30:55;;;;;;;;;;;;;;;11.76;96.70;94390.94;5052801;28;1278;-50
2023/04/25 04:33:23;;;;;;;;;;;;;;;11.69;97.72;94396.25;5052620;28;1913;-50
2023/04/25 04:35:53;;;;;;;;;;;;;;;11.73;98.04;94403.69;5053010;28;1040;-50
2023/04/25 04:38:19;;;;;;;;;;;;;;;11.63;98.93;94402.31;5056822;28;1019;-49
2023/04/25 04:40:46;;;;;;;;;;;;;;;11.71;98.21;94410.28;5055373;28;1253;-50
2023/04/25 04:43:12;;;;;;;;;;;;;;;11.85;97.97;94404.03;5056228;28;1092;-51
2023/04/25 04:45:40;;;;;;;;;;;;;;;11.98;96.53;94407.94;5056457;28;1020;-50
2023/04/25 04:48:06;;;;;;;;;;;;;;;12.00;96.65;94396.03;5056376;28;980;-50
2023/04/25 04:50:32;;;;;;;;;;;;;;;12.10;96.34;94393.88;5056359;28;1195;-50
2023/04/25 04:52:58;;;;;;;;;;;;;;;12.11;97.42;94384.00;5056295;28;1997;-50
2023/04/25 04:55:24;;;;;;;;;;;;;;;12.09;96.27;94388.72;5055241;28;1045;-51
2023/04/25 04:57:50;;;;;;;;;;;;;;;12.10;95.66;94385.00;5056029;28;1097;-50
2023/04/25 05:00:16;;;;;;;;;;;;;;;12.26;95.28;94384.78;5056163;28;1037;-50
2023/04/25 05:02:42;;;;;;;;;;;;;;;12.37;95.00;94394.19;5056365;28;981;-50
2023/04/25 05:05:08;;;;;;;;;;;;;;;12.70;93.54;94402.53;5055877;28;1040;-50
2023/04/25 05:07:34;;;;;;;;;;;;;;;12.84;91.50;94416.06;5056094;28;1029;-50
2023/04/25 05:10:00;;;;;;;;;;;;;;;12.66;91.27;94403.94;5055929;28;1112;-50
2023/04/25 05:12:26;;;;;;;;;;;;;;;12.15;94.02;94397.84;5055772;28;1054;-50
2023/04/25 05:14:52;;;;;;;;;;;;;;;12.19;95.07;94394.59;5055793;28;1902;-49
2023/04/25 05:17:18;;;;;;;;;;;;;;;12.42;94.99;94391.72;5055633;28;1050;-51
2023/04/25 05:19:44;;;;;;;;;;;;;;;12.75;92.07;94396.59;5055396;28;1231;-50
2023/04/25 05:22:10;;;;;;;;;;;;;;;12.72;90.72;94334.47;5055579;28;1029;-50
2023/04/25 05:24:36;;;;;;;;;;;;;;;13.53;88.48;94398.44;5055358;28;1258;-50
2023/04/25 05:27:02;;;;;;;;;;;;;;;13.84;86.50;94393.41;5054659;28;981;-50
2023/04/25 05:29:28;;;;;;;;;;;;;;;14.19;87.25;94403.25;5055503;28;1080;-50
2023/04/25 05:31:54;;;;;;;;;;;;;;;14.34;86.76;94389.66;5055429;28;1088;-50
2023/04/25 05:34:21;;;;;;;;;;;;;;;14.66;88.47;94389.97;5055224;28;1902;-50
2023/04/25 05:36:48;;;;;;;;;;;;;;;15.07;84.51;94389.81;5055388;28;1081;-50
2023/04/25 05:39:17;;;;;;;;;;;;;;;15.34;82.84;94392.47;5055477;28;1000;-50
2023/04/25 05:41:43;;;;;;;;;;;;;;;15.52;81.35;94389.16;5055186;28;1344;-50
2023/04/25 05:44:09;;;;;;;;;;;;;;;15.57;80.69;94383.94;5054060;28;1308;-50
2023/04/25 05:46:35;;;;;;;;;;;;;;;15.68;79.92;94380.59;5055128;28;1642;-50
2023/04/25 05:49:02;;;;;;;;;;;;;;;15.52;78.56;94381.88;5053696;28;1012;-50
2023/04/25 05:51:28;;;;;;;;;;;;;;;15.38;81.41;94375.66;5055014;28;1029;-50
2023/04/25 05:53:54;;;;;;;;;;;;;;;15.60;81.74;94375.44;5054896;28;1898;-51
2023/04/25 05:56:20;;;;;;;;;;;;;;;15.29;80.82;94389.56;5055085;28;989;-51
2023/04/25 05:58:47;;;;;;;;;;;;;;;15.16;82.39;94391.25;5055073;28;941;-50
2023/04/25 06:01:13;;;;;;;;;;;;;;;14.81;83.01;94385.22;5055170;28;1005;-50
2023/04/25 06:03:39;;;;;;;;;;;;;;;14.68;83.76;94379.84;5053880;28;977;-50
2023/04/25 06:06:05;;;;;;;;;;;;;;;14.53;85.28;94380.84;5055052;28;969;-50
2023/04/25 06:08:31;;;;;;;;;;;;;;;14.71;85.43;94390.19;5054749;28;1029;-51
2023/04/25 06:10:57;;;;;;;;;;;;;;;15.81;83.26;94391.38;5055036;28;1040;-51
2023/04/25 06:13:23;;;;;;;;;;;;;;;16.25;80.83;94388.09;5054660;28;1898;-50
2023/04/25 06:15:49;;;;;;;;;;;;;;;17.14;77.29;94384.44;5054677;28;985;-51
2023/04/25 06:18:15;;;;;;;;;;;;;;;17.07;76.96;94388.22;5054373;28;1093;-50
2023/04/25 06:20:41;;;;;;;;;;;;;;;16.90;73.10;94394.19;5054831;28;937;-51
2023/04/25 06:23:07;;;;;;;;;;;;;;;17.22;72.82;94398.72;5054726;28;989;-51
2023/04/25 06:25:33;;;;;;;;;;;;;;;17.11;70.93;94393.00;5054564;28;1063;-51
2023/04/25 06:27:59;;;;;;;;;;;;;;;17.11;71.26;94394.84;5053156;28;1029;-51
2023/04/25 06:30:25;;;;;;;;;;;;;;;16.98;71.33;94399.31;5054259;28;1037;-51
2023/04/25 06:32:52;;;;;;;;;;;;;;;17.63;71.80;94398.13;5054204;28;1981;-52
2023/04/25 06:35:19;;;;;;;;;;;;;;;18.10;71.99;94395.78;5053266;28;1056;-52
2023/04/25 06:37:45;;;;;;;;;;;;;;;18.20;69.60;94397.13;5053219;28;1016;-51
2023/04/25 06:40:11;;;;;;;;;;;;;;;18.59;66.82;94403.91;5054175;28;969;-50
2023/04/25 06:42:37;;;;;;;;;;;;;;;18.90;65.54;94412.88;5053906;28;1556;-51
2023/04/25 06:45:03;;;;;;;;;;;;;;;18.53;65.42;94402.97;5046841;28;2896;-51
2023/04/25 06:47:30;;;;;;;;;;;;;;;18.75;64.23;94401.63;5033776;28;965;-51
2023/04/25 06:49:56;;;;;;;;;;;;;;;18.86;64.90;94403.56;5034171;28;989;-51
2023/04/25 06:52:22;;;;;;;;;;;;;;;18.59;65.19;94394.94;5032962;28;1041;-51
2023/04/25 06:54:48;;;;;;;;;;;;;;;18.90;65.24;94397.44;5032732;28;1914;-51
2023/04/25 06:57:14;;;;;;;;;;;;;;;19.42;63.59;94393.31;5033985;28;1017;-51
2023/04/25 06:59:40;;;;;;;;;;;;;;;19.96;59.96;94398.66;5033103;28;1036;-51
2023/04/25 07:02:06;;;;;;;;;;;;;;;19.50;59.42;94398.38;5034179;28;1032;-50
2023/04/25 07:04:32;;;;;;;;;;;;;;;19.49;60.58;94394.03;5033824;28;1021;-51
2023/04/25 07:07:00;;;;;;;;;;;;;;;19.54;60.86;94394.16;5033615;28;1143;-50
2023/04/25 07:09:26;;;;;;;;;;;;;;;19.69;57.56;94394.50;5033747;28;969;-51
2023/04/25 07:11:52;;;;;;;;;;;;;;;19.78;56.79;94392.28;5033803;28;1024;-50
2023/04/25 07:14:18;;;;;;;;;;;;;;;20.10;56.29;94386.47;5033434;28;1918;-51
2023/04/25 07:16:44;;;;;;;;;;;;;;;19.29;60.05;94373.50;5033452;28;1032;-50
2023/04/25 07:19:11;;;;;;;;;;;;;;;18.78;60.04;94377.63;5032161;28;1042;-51
2023/04/25 07:21:37;;;;;;;;;;;;;;;19.41;61.35;94372.69;5033674;28;970;-51
2023/04/25 07:24:03;;;;;;;;;;;;;;;20.01;54.92;94375.13;5033762;28;1051;-51
2023/04/25 07:26:29;;;;;;;;;;;;;;;20.27;54.75;94367.53;5033364;28;1032;-51
2023/04/25 07:28:55;;;;;;;;;;;;;;;20.38;53.32;94369.41;5033289;28;1027;-51
2023/04/25 07:31:22;;;;;;;;;;;;;;;20.44;54.70;94362.19;5033112;28;1088;-51
2023/04/25 07:33:48;;;;;;;;;;;;;;;20.60;52.91;94368.75;5032391;28;1914;-51
2023/04/25 07:36:15;;;;;;;;;;;;;;;20.55;57.49;94365.94;5032038;28;1004;-51
2023/04/25 07:38:41;;;;;;;;;;;;;;;20.55;53.51;94364.03;5033556;28;1051;-51
2023/04/25 07:41:07;;;;;;;;;;;;;;;20.91;53.83;94359.28;5038084;28;1740;-51
2023/04/25 07:43:33;;;;;;;;;;;;;;;20.83;50.42;94363.22;5052707;28;1874;-51
2023/04/25 07:45:59;;;;;;;;;;;;;;;21.35;52.16;94348.59;5053098;28;949;-51
2023/04/25 07:48:25;;;;;;;;;;;;;;;21.32;48.73;94356.41;5052947;28;1088;-51
2023/04/25 07:50:51;;;;;;;;;;;;;;;21.47;47.05;94347.72;5053203;28;984;-51
2023/04/25 07:53:18;;;;;;;;;;;;;;;20.95;47.58;94346.03;5052785;28;1995;-51
2023/04/25 07:55:44;;;;;;;;;;;;;;;20.92;45.46;94349.22;5053124;28;1000;-51
2023/04/25 07:58:11;;;;;;;;;;;;;;;21.48;46.20;94346.66;5052897;28;1008;-51
2023/04/25 08:00:37;;;;;;;;;;;;;;;22.07;47.82;94341.50;5053136;28;1100;-51
2023/04/25 08:03:03;;;;;;;;;;;;;;;21.87;49.55;94338.50;5052822;28;1096;-51
2023/04/25 08:05:29;;;;;;;;;;;;;;;22.02;48.05;94334.09;5053109;28;1024;-51
2023/04/25 08:07:56;;;;;;;;;;;;;;;21.87;46.54;94338.50;5053039;28;1040;-51
2023/04/25 08:10:23;;;;;;;;;;;;;;;22.25;45.93;94348.53;5053744;28;1060;-51
2023/04/25 08:12:49;;;;;;;;;;;;;;;22.42;46.65;94326.69;5056838;28;1040;-51
2023/04/25 08:15:15;;;;;;;;;;;;;;;22.31;45.52;94336.66;5056595;28;1977;-51
2023/04/25 08:17:41;;;;;;;;;;;;;;;22.49;49.35;94326.50;5056689;28;1072;-51
2023/04/25 08:20:07;;;;;;;;;;;;;;;22.47;46.81;94336.84;5056700;28;1072;-52
2023/04/25 08:22:33;;;;;;;;;;;;;;;21.86;45.20;94334.97;5056691;28;980;-51
2023/04/25 08:24:59;;;;;;;;;;;;;;;21.77;42.04;94341.91;5056566;28;1195;-51
2023/04/25 08:27:26;;;;;;;;;;;;;;;22.45;45.86;94325.38;5056469;28;1053;-51
2023/04/25 08:29:52;;;;;;;;;;;;;;;22.63;43.59;94332.38;5056382;28;1214;-52
2023/04/25 08:32:18;;;;;;;;;;;;;;;22.88;43.36;94334.53;5055412;28;942;-51
2023/04/25 08:34:44;;;;;;;;;;;;;;;22.45;45.88;94330.81;5056601;28;1905;-51
2023/04/25 08:37:10;;;;;;;;;;;;;;;22.64;43.50;94334.84;5056615;28;1009;-51
2023/04/25 08:39:36;;;;;;;;;;;;;;;22.47;42.64;94331.38;5055096;28;1218;-52
2023/04/25 08:42:07;;;;;;;;;;;;;;;22.92;44.59;94331.03;5056110;28;1316;-51
2023/04/25 08:44:34;;;;;;;;;;;;;;;23.56;45.02;94341.16;5056015;28;1097;-52
2023/04/25 08:47:02;;;;;;;;;;;;;;;23.43;45.15;94338.88;5056149;28;1062;-51
2023/04/25 08:49:29;;;;;;;;;;;;;;;22.26;41.87;94342.03;5056112;28;1124;-52
2023/04/25 08:51:59;;;;;;;;;;;;;;;21.78;43.26;94341.66;5056077;28;1038;-52
2023/04/25 08:54:27;;;;;;;;;;;;;;;22.49;39.10;94348.28;5055961;28;1981;-52
2023/04/25 08:56:54;;;;;;;;;;;;;;;22.84;37.92;94342.41;5056149;28;997;-52
2023/04/25 08:59:21;;;;;;;;;;;;;;;22.79;38.78;94348.63;5055836;28;1061;-52
2023/04/25 09:01:47;;;;;;;;;;;;;;;22.39;36.71;94344.38;5054779;28;1092;-52
2023/04/25 09:04:13;;;;;;;;;;;;;;;22.15;40.02;94327.44;5055745;28;1215;-51
2023/04/25 09:06:39;;;;;;;;;;;;;;;21.53;37.87;94338.56;5056100;28;1025;-55
2023/04/25 09:09:06;;;;;;;;;;;;;;;21.24;39.10;94334.00;5056298;28;1060;-51
2023/04/25 09:11:33;;;;;;;;;;;;;;;20.64;39.48;94334.59;5055838;28;1097;-51
2023/04/25 09:14:14;;;;;;;;;;;;;;;20.14;40.28;94333.34;5055553;28;1898;-51
2023/04/25 09:16:57;;;;;;;;;;;;;;;19.95;41.23;94340.03;5055654;28;1029;-51
2023/04/25 09:19:24;;;;;;;;;;;;;;;19.84;42.64;94325.41;5055597;28;1427;-52
2023/04/25 09:21:51;;;;;;;;;;;;;;;20.40;41.11;94323.00;5055074;28;1021;-52
2023/04/25 09:24:29;;;;;;;;;;;;;;;20.26;40.99;94317.03;5055794;28;1031;-53
2023/04/25 09:26:55;;;;;;;;;;;;;;;20.28;39.95;94321.16;5055709;28;973;-52
2023/04/25 09:29:28;;;;;;;;;;;;;;;20.23;41.24;94322.97;5054209;28;1087;-51
2023/04/25 09:32:10;;;;;;;;;;;;;;;20.08;42.66;94321.56;5055505;28;1022;-52
2023/04/25 09:34:40;;;;;;;;;;;;;;;20.04;39.98;94319.59;5055428;28;1987;-52
2023/04/25 09:37:06;;;;;;;;;;;;;;;19.83;42.96;94321.06;5055402;28;1081;-52
2023/04/25 09:39:33;;;;;;;;;;;;;;;19.83;43.63;94318.34;5055376;28;1855;-52
2023/04/25 09:41:59;;;;;;;;;;;;;;;20.07;42.20;94332.66;5055254;28;1245;-51
2023/04/25 09:44:25;;;;;;;;;;;;;;;20.09;41.08;94339.50;5055029;28;1223;-51
2023/04/25 09:46:54;;;;;;;;;;;;;;;19.81;41.21;94328.63;5055151;28;990;-51
2023/04/25 09:49:21;;;;;;;;;;;;;;;19.69;43.07;94323.16;5055026;28;1053;-51
2023/04/25 09:52:07;;;;;;;;;;;;;;;19.54;41.94;94325.53;5054984;28;1891;-51
2023/04/25 09:54:33;;;;;;;;;;;;;;;19.36;43.18;94321.06;5054766;28;2016;-52
2023/04/25 09:57:09;;;;;;;;;;;;;;;19.10;44.41;94307.75;5055103;28;991;-51
2023/04/25 09:59:38;;;;;;;;;;;;;;;19.01;44.07;94303.75;5054969;28;1016;-52
2023/04/25 10:02:05;;;;;;;;;;;;;;;19.02;43.35;94310.78;5054779;28;1020;-52
2023/04/25 10:04:34;;;;;;;;;;;;;;;19.25;44.01;94303.75;5054685;28;1049;-51
2023/04/25 10:07:01;;;;;;;;;;;;;;;19.54;42.92;94301.13;5054961;28;1048;-51
2023/04/25 10:09:31;;;;;;;;;;;;;;;19.60;42.15;94300.19;5054625;28;1104;-52
2023/04/25 10:11:58;;;;;;;;;;;;;;;19.62;42.02;94281.81;5053719;28;1064;-50
2023/04/25 10:14:24;;;;;;;;;;;;;;;19.53;41.93;94294.91;5046656;28;2766;-52
2023/04/25 10:16:53;;;;;;;;;;;;;;;19.58;42.20;94295.00;5034399;28;1570;-51
2023/04/25 10:19:20;;;;;;;;;;;;;;;19.44;41.96;94299.84;5034453;28;1092;-52
2023/04/25 10:21:48;;;;;;;;;;;;;;;19.03;42.82;94304.34;5034815;28;1067;-51
2023/04/25 10:24:15;;;;;;;;;;;;;;;18.62;44.29;94287.03;5034569;28;962;-50
2023/04/25 10:26:41;;;;;;;;;;;;;;;18.56;47.61;94270.91;5034613;28;1024;-50
2023/04/25 10:29:09;;;;;;;;;;;;;;;18.39;48.72;94262.63;5033536;28;970;-50
2023/04/25 10:31:44;;;;;;;;;;;;;;;18.44;49.43;94263.59;5034550;28;1020;-50
2023/04/25 10:34:10;;;;;;;;;;;;;;;18.53;48.35;94262.19;5033636;28;1967;-50
2023/04/25 10:36:37;;;;;;;;;;;;;;;18.49;48.52;94257.47;5034637;28;993;-50
2023/04/25 10:39:08;;;;;;;;;;;;;;;18.69;48.26;94260.69;5034389;28;1085;-50
2023/04/25 10:41:52;;;;;;;;;;;;;;;18.81;46.93;94254.50;5042512;28;1242;-50
2023/04/25 10:44:18;;;;;;;;;;;;;;;18.92;48.15;94253.69;5053805;28;1355;-50
2023/04/25 10:46:45;;;;;;;;;;;;;;;18.96;47.51;94243.22;5054083;28;1163;-49
2023/04/25 10:49:27;;;;;;;;;;;;;;;19.04;44.82;94250.97;5054134;28;1019;-50
2023/04/25 10:52:10;;;;;;;;;;;;;;;18.90;46.45;94245.78;5053940;28;1021;-50
2023/04/25 10:54:40;;;;;;;;;;;;;;;18.71;46.48;94250.44;5054151;28;1905;-50
2023/04/25 10:57:06;;;;;;;;;;;;;;;18.61;45.89;94258.34;5052655;28;1049;-50
2023/04/25 10:59:32;;;;;;;;;;;;;;;18.38;47.04;94269.91;5052457;28;1116;-49
2023/04/25 11:01:58;;;;;;;;;;;;;;;17.87;49.48;94276.66;5054031;28;1015;-50
2023/04/25 11:04:31;;;;;;;;;;;;;;;17.52;50.43;94277.25;5053688;28;1128;-50
2023/04/25 11:07:09;;;;;;;;;;;;;;;17.19;52.56;94278.44;5053635;28;1085;-50
2023/04/25 11:09:38;;;;;;;;;;;;;;;16.91;55.24;94271.63;5053593;28;1526;-50
2023/04/25 11:12:04;;;;;;;;;;;;;;;16.58;56.61;94277.28;5053529;28;1034;-50
2023/04/25 11:14:30;;;;;;;;;;;;;;;16.51;56.80;94279.22;5053454;28;1989;-50
2023/04/25 11:16:57;;;;;;;;;;;;;;;16.48;56.70;94277.75;5053538;28;1076;-50
2023/04/25 11:19:24;;;;;;;;;;;;;;;16.45;58.39;94278.22;5053359;28;997;-50
2023/04/25 11:21:54;;;;;;;;;;;;;;;16.37;60.66;94282.00;5053656;28;949;-49
2023/04/25 11:24:25;;;;;;;;;;;;;;;16.34;62.60;94276.22;5053356;28;1044;-50
2023/04/25 11:26:51;;;;;;;;;;;;;;;16.42;63.08;94281.34;5053422;28;1120;-50
2023/04/25 11:29:17;;;;;;;;;;;;;;;16.82;62.04;94278.34;5053413;28;1057;-50
2023/04/25 11:31:45;;;;;;;;;;;;;;;17.20;58.06;94280.06;5053317;28;1089;-50
2023/04/25 11:34:11;;;;;;;;;;;;;;;17.31;57.69;94275.81;5053423;28;2001;-50
2023/04/25 11:36:38;;;;;;;;;;;;;;;17.25;57.09;94269.44;5053630;28;973;-51
2023/04/25 11:39:05;;;;;;;;;;;;;;;17.20;58.02;94274.69;5053479;28;1040;-51
2023/04/25 11:41:31;;;;;;;;;;;;;;;17.07;56.29;94264.00;5053010;28;1543;-51
2023/04/25 11:43:57;;;;;;;;;;;;;;;16.91;57.83;94252.72;5051816;28;1366;-51
2023/04/25 11:46:23;;;;;;;;;;;;;;;16.84;60.73;94260.06;5052761;28;1105;-51
2023/04/25 11:48:50;;;;;;;;;;;;;;;16.85;60.82;94250.94;5053477;28;976;-51
2023/04/25 11:51:16;;;;;;;;;;;;;;;16.81;60.62;94259.63;5053246;28;1017;-51
2023/04/25 11:53:44;;;;;;;;;;;;;;;16.93;60.11;94269.53;5053191;28;1985;-51
2023/04/25 11:56:11;;;;;;;;;;;;;;;17.01;58.10;94276.53;5053055;28;1085;-50
2023/04/25 11:58:56;;;;;;;;;;;;;;;17.14;56.40;94289.09;5052923;28;1029;-50
2023/04/25 12:01:26;;;;;;;;;;;;;;;17.03;56.43;94287.94;5052886;28;1034;-49
2023/04/25 12:03:52;;;;;;;;;;;;;;;16.92;58.18;94294.03;5053156;28;961;-49
2023/04/25 12:06:18;;;;;;;;;;;;;;;16.89;58.20;94284.53;5053019;28;965;-50
2023/04/25 12:09:04;;;;;;;;;;;;;;;16.72;60.45;94292.31;5052888;28;1097;-50
2023/04/25 12:11:31;;;;;;;;;;;;;;;16.66;64.28;94278.91;5052812;28;1089;-50
2023/04/25 12:14:01;;;;;;;;;;;;;;;16.62;65.83;94283.06;5053025;28;1902;-50
2023/04/25 12:16:27;;;;;;;;;;;;;;;16.64;66.85;94283.66;5053026;28;996;-50
2023/04/25 12:18:53;;;;;;;;;;;;;;;16.58;68.33;94290.78;5053068;28;1040;-50
2023/04/25 12:21:20;;;;;;;;;;;;;;;16.68;66.22;94287.59;5052882;28;985;-50
2023/04/25 12:23:46;;;;;;;;;;;;;;;16.52;66.88;94283.53;5051608;28;1029;-50
2023/04/25 12:26:12;;;;;;;;;;;;;;;16.39;64.68;94290.72;5052873;28;1005;-50
2023/04/25 12:28:39;;;;;;;;;;;;;;;16.41;64.26;94290.50;5034999;28;816;-50
2023/04/25 12:31:06;;;;;;;;;;;;;;;16.41;64.70;94290.50;5052879;28;997;-50
2023/04/25 12:33:33;;;;;;;;;;;;;;;16.51;65.33;94287.31;5052697;28;1999;-50
2023/04/25 12:36:00;;;;;;;;;;;;;;;16.55;66.47;94283.94;5052938;28;993;-50
2023/04/25 12:38:31;;;;;;;;;;;;;;;16.61;67.87;94279.53;5052694;28;973;-51
2023/04/25 12:40:58;;;;;;;;;;;;;;;16.70;67.08;94288.19;5052841;28;1529;-50
2023/04/25 12:43:24;;;;;;;;;;;;;;;16.75;66.41;94283.78;5052487;28;1111;-50
2023/04/25 12:45:51;;;;;;;;;;;;;;;16.79;68.38;94303.91;5052815;28;953;-50
2023/04/25 12:48:17;;;;;;;;;;;;;;;17.00;67.26;94301.88;5052503;28;1101;-50
2023/04/25 12:50:44;;;;;;;;;;;;;;;16.98;67.28;94310.22;5052843;28;953;-50
2023/04/25 12:53:11;;;;;;;;;;;;;;;16.87;66.00;94312.81;5052762;28;1985;-50
2023/04/25 12:55:37;;;;;;;;;;;;;;;16.83;65.19;94304.31;5052517;28;1026;-50
2023/04/25 12:58:03;;;;;;;;;;;;;;;16.77;66.88;94303.28;5054630;28;1044;-50
2023/04/25 13:00:30;;;;;;;;;;;;;;;16.82;66.59;94302.66;5055961;28;1053;-50